Time;durP1;ratioP1;P1;durP2;ratioP2;P2;SDS_P1;SDS_P2;PMS_P1;PMS_P2;Temp;Humidity;BMP_temperature;BMP_pressure;BME280_temperature;BME280_humidity;BME280_pressure;Samples;Min_cycle;Max_cycle;Signal;HPM_P1;HPM_P2
2021/11/17 02:26:22;;;;;;;40.15;17.55;;;5.20;99.90;;;;;;5079976;28;20500;-46
2021/11/17 02:29:07;;;;;;;36.45;17.77;;;5.20;99.90;;;;;;5089696;28;20099;-44
2021/11/17 02:31:42;;;;;;;39.72;19.23;;;5.20;99.90;;;;;;5077485;28;20378;-43
2021/11/17 02:34:35;;;;;;;35.20;17.20;;;5.20;99.90;;;;;;5077779;28;20020;-46
2021/11/17 02:37:12;;;;;;;35.72;16.85;;;5.20;99.90;;;;;;5093951;28;20080;-46
2021/11/17 02:40:03;;;;;;;38.22;17.90;;;5.20;99.90;;;;;;5106542;28;20078;-46
2021/11/17 02:42:53;;;;;;;35.75;17.60;;;5.30;99.90;;;;;;5092186;28;20039;-47
2021/11/17 02:45:43;;;;;;;38.50;17.10;;;5.30;99.90;;;;;;5089663;28;20024;-46
2021/11/17 02:48:18;;;;;;;36.15;17.33;;;5.30;99.90;;;;;;5090408;28;20034;-46
2021/11/17 02:50:51;;;;;;;34.95;17.23;;;5.20;99.90;;;;;;5092177;28;20150;-46
2021/11/17 02:53:20;;;;;;;39.05;18.40;;;5.20;99.90;;;;;;5085249;28;20070;-46
2021/11/17 02:56:13;;;;;;;39.28;18.33;;;5.20;99.90;;;;;;5073727;28;20067;-46
2021/11/17 02:58:47;;;;;;;38.63;18.35;;;5.20;99.90;;;;;;5093508;28;20031;-46
2021/11/17 03:01:31;;;;;;;36.47;18.40;;;5.30;99.90;;;;;;5081022;28;20024;-46
2021/11/17 03:04:06;;;;;;;34.92;17.02;;;5.30;99.90;;;;;;5087569;28;20175;-46
2021/11/17 03:07:12;;;;;;;36.20;18.48;;;5.30;99.90;;;;;;5086885;28;20028;-46
2021/11/17 03:09:55;;;;;;;40.83;17.15;;;5.30;99.90;;;;;;5096295;28;20533;-46
2021/11/17 03:12:52;;;;;;;39.47;19.40;;;5.30;99.90;;;;;;5093400;28;20039;-46
2021/11/17 03:15:39;;;;;;;35.40;17.05;;;5.30;99.90;;;;;;5083539;28;20029;-45
2021/11/17 03:18:11;;;;;;;36.60;17.77;;;5.30;99.90;;;;;;5091604;28;20277;-45
2021/11/17 03:21:14;;;;;;;35.47;18.17;;;5.30;99.90;;;;;;5073062;28;20094;-46
2021/11/17 03:23:42;;;;;;;40.10;19.05;;;5.30;99.90;;;;;;5084582;28;20036;-45
2021/11/17 03:26:38;;;;;;;40.15;16.95;;;5.30;99.90;;;;;;5090145;28;20329;-46
2021/11/17 03:29:16;;;;;;;34.78;17.75;;;5.30;99.90;;;;;;5090233;28;20013;-45
2021/11/17 03:32:12;;;;;;;39.03;18.33;;;5.30;99.90;;;;;;5086604;28;20051;-46
2021/11/17 03:34:59;;;;;;;41.53;19.23;;;5.30;99.90;;;;;;5100726;27;20028;-45
2021/11/17 03:37:38;;;;;;;36.45;18.60;;;5.30;99.90;;;;;;5089624;28;20115;-45
2021/11/17 03:40:20;;;;;;;43.65;19.27;;;5.30;99.90;;;;;;5089231;28;20030;-46
2021/11/17 03:43:06;;;;;;;41.72;18.85;;;5.30;99.90;;;;;;5085988;28;20021;-46
2021/11/17 03:46:04;;;;;;;39.85;19.10;;;5.30;99.90;;;;;;5090902;28;20098;-45
2021/11/17 03:48:32;;;;;;;36.45;18.73;;;5.30;99.90;;;;;;5084068;28;20096;-45
2021/11/17 03:51:51;;;;;;;39.97;19.25;;;5.30;99.90;;;;;;5090309;28;20020;-45
2021/11/17 03:54:51;;;;;;;35.90;17.33;;;5.30;99.90;;;;;;5035964;28;20029;-47
2021/11/17 03:57:24;;;;;;;41.42;19.60;;;5.30;99.90;;;;;;5087312;28;20028;-46
2021/11/17 04:00:25;;;;;;;33.50;16.92;;;5.30;99.90;;;;;;5101042;28;20054;-45
2021/11/17 04:03:10;;;;;;;36.72;18.02;;;5.30;99.90;;;;;;5089226;28;20640;-46
2021/11/17 04:05:57;;;;;;;36.88;17.10;;;5.30;99.90;;;;;;5090393;28;20320;-45
2021/11/17 04:09:19;;;;;;;36.03;17.88;;;5.30;99.90;;;;;;5086129;28;20481;-46
2021/11/17 04:12:22;;;;;;;40.50;18.17;;;5.30;99.90;;;;;;5026346;28;20045;-46
2021/11/17 04:14:59;;;;;;;37.25;17.40;;;5.30;99.90;;;;;;5049468;28;20039;-47
2021/11/17 04:17:31;;;;;;;40.30;18.25;;;5.30;99.90;;;;;;5086448;28;20039;-46
2021/11/17 04:20:28;;;;;;;35.08;18.13;;;5.20;99.90;;;;;;5083304;28;20031;-46
2021/11/17 04:22:59;;;;;;;35.17;17.83;;;5.30;99.90;;;;;;5076419;28;20043;-46
2021/11/17 04:25:42;;;;;;;39.70;18.25;;;5.30;99.90;;;;;;5085175;28;20032;-45
2021/11/17 04:28:35;;;;;;;41.78;18.88;;;5.30;99.90;;;;;;5086806;28;20046;-46
2021/11/17 04:31:22;;;;;;;37.08;17.42;;;5.30;99.90;;;;;;5085297;28;20016;-48
2021/11/17 04:34:21;;;;;;;37.60;17.17;;;5.20;99.90;;;;;;5089469;28;20035;-48
2021/11/17 04:37:20;;;;;;;37.35;17.90;;;5.30;99.90;;;;;;5088249;28;20020;-45
2021/11/17 04:40:17;;;;;;;39.30;18.55;;;5.20;99.90;;;;;;5088510;28;20059;-47
2021/11/17 04:43:05;;;;;;;40.92;18.70;;;5.30;99.90;;;;;;5099229;28;20100;-46
2021/11/17 04:45:51;;;;;;;38.42;17.95;;;5.30;99.90;;;;;;5080990;28;20540;-46
2021/11/17 04:48:40;;;;;;;37.72;17.75;;;5.30;99.90;;;;;;5098076;28;20020;-45
2021/11/17 04:51:05;;;;;;;36.63;18.00;;;5.30;99.90;;;;;;5070051;28;20283;-46
2021/11/17 04:54:08;;;;;;;34.38;17.52;;;5.30;99.90;;;;;;5084606;28;20099;-46
2021/11/17 04:56:45;;;;;;;36.55;17.40;;;5.30;99.90;;;;;;5102609;28;20046;-45
2021/11/17 04:59:35;;;;;;;35.45;18.85;;;5.30;99.90;;;;;;5088117;28;20030;-46
2021/11/17 05:02:22;;;;;;;37.70;18.20;;;5.30;99.90;;;;;;5080066;28;20493;-48
2021/11/17 05:04:50;;;;;;;35.28;17.63;;;5.30;99.90;;;;;;5095542;28;20177;-46
2021/11/17 05:07:37;;;;;;;41.85;18.35;;;5.30;99.90;;;;;;5086690;28;20027;-46
2021/11/17 05:10:32;;;;;;;34.63;16.75;;;5.40;99.90;;;;;;5087264;28;20056;-46
2021/11/17 05:13:32;;;;;;;35.22;17.08;;;5.40;99.90;;;;;;5067166;28;20437;-46
2021/11/17 05:16:07;;;;;;;28.25;15.35;;;5.30;99.90;;;;;;5081521;28;20032;-46
2021/11/17 05:19:12;;;;;;;37.95;18.02;;;5.30;99.90;;;;;;5067102;28;20039;-46
2021/11/17 05:21:43;;;;;;;31.35;16.20;;;5.40;99.90;;;;;;5068415;28;20167;-46
2021/11/17 05:24:21;;;;;;;31.17;16.42;;;5.40;99.90;;;;;;5076767;28;20235;-46
2021/11/17 05:27:13;;;;;;;40.55;18.33;;;5.40;99.90;;;;;;5099710;28;20570;-45
2021/11/17 05:29:44;;;;;;;36.20;18.67;;;5.40;99.90;;;;;;5098572;28;20330;-46
2021/11/17 05:32:39;;;;;;;32.25;16.02;;;5.40;99.90;;;;;;5099743;28;20032;-45
2021/11/17 05:35:05;;;;;;;34.67;16.70;;;5.40;99.90;;;;;;5108953;28;20024;-47
2021/11/17 05:37:49;;;;;;;36.75;17.05;;;5.40;99.90;;;;;;5087293;28;20115;-45
2021/11/17 05:40:30;;;;;;;33.50;17.40;;;5.40;99.90;;;;;;5093666;28;20032;-46
2021/11/17 05:43:05;;;;;;;30.90;17.33;;;5.40;99.90;;;;;;5106834;28;20362;-46
2021/11/17 05:45:56;;;;;;;30.02;15.55;;;5.40;99.90;;;;;;5105838;28;20400;-46
2021/11/17 05:48:48;;;;;;;32.33;16.67;;;5.50;99.90;;;;;;5082027;28;20027;-47
2021/11/17 05:51:35;;;;;;;32.88;16.33;;;5.50;99.90;;;;;;5089800;28;20030;-47
2021/11/17 05:54:16;;;;;;;32.38;15.98;;;5.50;99.90;;;;;;5087778;28;20203;-48
2021/11/17 05:57:13;;;;;;;36.47;17.17;;;5.40;99.90;;;;;;5074195;28;20489;-47
2021/11/17 05:59:42;;;;;;;30.98;15.57;;;5.40;99.90;;;;;;5065802;28;20123;-47
2021/11/17 06:02:22;;;;;;;34.13;16.52;;;5.40;99.90;;;;;;5087548;28;20060;-47
2021/11/17 06:04:47;;;;;;;30.67;15.25;;;5.40;99.90;;;;;;5081452;28;20020;-47
2021/11/17 06:07:13;;;;;;;32.92;16.63;;;5.40;99.90;;;;;;5100412;28;20603;-47
2021/11/17 06:09:38;;;;;;;38.17;17.05;;;5.40;99.90;;;;;;5080959;28;20040;-47
2021/11/17 06:12:11;;;;;;;28.73;16.20;;;5.40;99.90;;;;;;5066269;28;20027;-47
2021/11/17 06:14:40;;;;;;;35.85;17.35;;;5.40;99.90;;;;;;5067705;28;20217;-47
2021/11/17 06:17:14;;;;;;;33.78;16.23;;;5.40;99.90;;;;;;5066792;28;20048;-47
2021/11/17 06:19:44;;;;;;;32.55;16.17;;;5.30;99.90;;;;;;5067597;28;20036;-48
2021/11/17 06:22:11;;;;;;;33.50;16.17;;;5.30;99.90;;;;;;5067662;28;20046;-47
2021/11/17 06:24:38;;;;;;;34.60;16.52;;;5.30;99.90;;;;;;5068295;28;20032;-47
2021/11/17 06:27:06;;;;;;;35.28;16.35;;;5.30;99.90;;;;;;5097563;28;20024;-47
2021/11/17 06:29:42;;;;;;;34.55;15.73;;;5.30;99.90;;;;;;5100709;28;20487;-47
2021/11/17 06:32:10;;;;;;;34.20;16.13;;;5.30;99.90;;;;;;5089442;28;20020;-47
2021/11/17 06:34:42;;;;;;;36.50;16.80;;;5.30;99.90;;;;;;5087683;28;20084;-47
2021/11/17 06:37:29;;;;;;;39.53;17.70;;;5.30;99.90;;;;;;5087074;28;20035;-50
2021/11/17 06:39:58;;;;;;;33.28;17.23;;;5.30;99.90;;;;;;5087280;28;20064;-49
2021/11/17 06:42:32;;;;;;;34.38;17.80;;;5.30;99.90;;;;;;5089042;28;20039;-50
2021/11/17 06:44:58;;;;;;;37.13;17.98;;;5.30;99.90;;;;;;5091844;28;20549;-49
2021/11/17 06:47:24;;;;;;;36.67;18.08;;;5.30;99.90;;;;;;5097086;28;20111;-47
2021/11/17 06:49:52;;;;;;;39.28;18.80;;;5.30;99.90;;;;;;5110722;28;20118;-47
2021/11/17 06:52:19;;;;;;;41.75;18.63;;;5.20;99.90;;;;;;5110616;28;20612;-47
2021/11/17 06:54:44;;;;;;;41.60;19.40;;;5.20;99.90;;;;;;5109496;28;20036;-49
2021/11/17 06:57:10;;;;;;;36.10;17.90;;;5.30;99.90;;;;;;5098954;28;20039;-47
2021/11/17 06:59:35;;;;;;;42.75;18.70;;;5.20;99.90;;;;;;5108882;28;20417;-47
2021/11/17 07:02:05;;;;;;;40.10;18.40;;;5.30;99.90;;;;;;5110401;28;20026;-47
2021/11/17 07:04:31;;;;;;;36.97;18.50;;;5.30;99.90;;;;;;5110509;28;20020;-47
2021/11/17 07:06:57;;;;;;;35.53;17.70;;;5.30;99.90;;;;;;5111440;28;20039;-49
2021/11/17 07:09:22;;;;;;;39.65;16.95;;;5.30;99.90;;;;;;5097392;27;20021;-47
2021/11/17 07:11:48;;;;;;;35.30;17.27;;;5.30;99.90;;;;;;5100515;28;20047;-50
2021/11/17 07:14:13;;;;;;;35.55;17.73;;;5.30;99.90;;;;;;5111637;28;20586;-47
2021/11/17 07:16:40;;;;;;;35.83;15.82;;;5.40;99.90;;;;;;5111544;28;20038;-48
2021/11/17 07:19:10;;;;;;;37.60;17.45;;;5.40;99.90;;;;;;5110850;28;20480;-49
2021/11/17 07:21:38;;;;;;;40.67;17.15;;;5.30;99.90;;;;;;5111855;28;20028;-49
2021/11/17 07:24:04;;;;;;;39.45;17.08;;;5.40;99.90;;;;;;5104039;28;20027;-48
2021/11/17 07:26:30;;;;;;;38.28;18.90;;;5.30;99.90;;;;;;5101280;28;20030;-49
2021/11/17 07:28:55;;;;;;;33.95;17.13;;;5.40;99.90;;;;;;5108390;28;20016;-49
2021/11/17 07:31:21;;;;;;;31.92;16.02;;;5.40;99.90;;;;;;5099908;28;20032;-47
2021/11/17 07:37:08;;;;;;;31.98;14.02;;;5.50;99.90;;;;;;5070755;28;20043;-47
2021/11/17 07:39:35;;;;;;;31.98;15.18;;;5.50;99.90;;;;;;5086640;28;20040;-48
2021/11/17 07:42:01;;;;;;;27.52;13.40;;;5.60;99.90;;;;;;5084289;28;20230;-49
2021/11/17 07:44:27;;;;;;;29.35;14.30;;;5.60;99.90;;;;;;5084827;28;20045;-47
2021/11/17 07:46:58;;;;;;;29.88;13.40;;;5.60;99.90;;;;;;5078658;28;20055;-50
2021/11/17 07:49:25;;;;;;;36.83;16.33;;;5.60;99.90;;;;;;5085976;28;20016;-48
2021/11/17 07:51:51;;;;;;;29.60;15.20;;;5.70;99.90;;;;;;5083777;28;20021;-48
2021/11/17 07:54:18;;;;;;;29.17;13.63;;;5.70;99.90;;;;;;5084919;28;20028;-47
2021/11/17 07:56:44;;;;;;;32.72;15.40;;;5.70;99.90;;;;;;5088918;28;20413;-47
2021/11/17 07:59:14;;;;;;;30.20;13.55;;;5.80;99.90;;;;;;5084083;28;20489;-49
2021/11/17 08:01:39;;;;;;;27.38;13.85;;;5.80;99.90;;;;;;5082549;28;20498;-50
2021/11/17 08:04:06;;;;;;;25.77;13.82;;;5.80;99.90;;;;;;5081833;28;20029;-47
2021/11/17 08:06:31;;;;;;;28.73;14.90;;;5.90;99.90;;;;;;5081050;28;20016;-47
2021/11/17 08:08:57;;;;;;;30.88;15.43;;;5.90;99.90;;;;;;5084766;28;20516;-47
2021/11/17 08:11:23;;;;;;;29.95;15.07;;;5.90;99.90;;;;;;5082926;28;20043;-47
2021/11/17 08:13:50;;;;;;;28.40;14.25;;;5.90;99.90;;;;;;5081426;28;20047;-50
2021/11/17 08:16:16;;;;;;;31.73;15.95;;;6.00;99.90;;;;;;5074411;28;20473;-48
2021/11/17 08:18:42;;;;;;;31.27;15.40;;;6.00;99.90;;;;;;5082516;28;20039;-50
2021/11/17 08:21:11;;;;;;;31.55;15.27;;;6.10;99.90;;;;;;5081403;28;20032;-47
2021/11/17 08:23:37;;;;;;;33.13;15.90;;;6.00;99.90;;;;;;5077024;28;20037;-48
2021/11/17 08:26:04;;;;;;;38.45;17.13;;;6.00;99.90;;;;;;5080250;28;20036;-47
2021/11/17 08:28:30;;;;;;;30.77;15.73;;;6.00;99.90;;;;;;5090445;28;20064;-49
2021/11/17 08:30:56;;;;;;;28.55;15.15;;;6.00;99.90;;;;;;5090419;28;20186;-47
2021/11/17 08:33:21;;;;;;;32.67;15.65;;;6.00;99.90;;;;;;5089490;28;20039;-48
2021/11/17 08:35:48;;;;;;;33.92;16.08;;;6.10;99.90;;;;;;5078420;28;20527;-47
2021/11/17 08:38:21;;;;;;;29.35;14.20;;;6.10;99.90;;;;;;5069256;28;20033;-48
2021/11/17 08:40:51;;;;;;;34.13;15.38;;;6.10;99.90;;;;;;5089868;28;20074;-49
2021/11/17 08:43:17;;;;;;;33.00;15.68;;;6.10;99.90;;;;;;5090591;28;20020;-47
2021/11/17 08:45:43;;;;;;;30.83;14.82;;;6.10;99.90;;;;;;5088505;28;20023;-47
2021/11/17 08:48:10;;;;;;;31.67;15.48;;;6.20;99.90;;;;;;5098475;28;20020;-50
2021/11/17 08:50:38;;;;;;;31.23;15.07;;;6.20;99.90;;;;;;5070195;28;20493;-47
2021/11/17 08:53:07;;;;;;;29.85;15.55;;;6.20;99.90;;;;;;5092999;28;20048;-48
2021/11/17 08:55:32;;;;;;;29.50;14.30;;;6.20;99.90;;;;;;5109888;28;20035;-47
2021/11/17 08:58:00;;;;;;;31.17;14.25;;;6.30;99.90;;;;;;5094742;28;20688;-47
2021/11/17 09:00:27;;;;;;;28.13;14.45;;;6.20;99.90;;;;;;5091306;28;20702;-49
2021/11/17 09:02:54;;;;;;;32.35;16.27;;;6.10;99.90;;;;;;5088535;28;20062;-49
2021/11/17 09:05:27;;;;;;;28.55;13.63;;;6.10;99.90;;;;;;5091832;28;20431;-48
2021/11/17 09:07:52;;;;;;;26.27;14.00;;;6.20;99.90;;;;;;5086073;28;20032;-47
2021/11/17 09:10:22;;;;;;;27.73;14.25;;;6.30;99.90;;;;;;5093430;28;20028;-47
2021/11/17 09:12:48;;;;;;;27.00;14.60;;;6.30;99.90;;;;;;5088135;28;20027;-48
2021/11/17 09:15:16;;;;;;;31.55;15.45;;;6.40;99.90;;;;;;5095796;28;20373;-49
2021/11/17 09:17:42;;;;;;;27.23;14.60;;;6.50;99.90;;;;;;5089050;28;20033;-47
2021/11/17 09:20:11;;;;;;;22.42;13.15;;;6.60;99.90;;;;;;5086933;28;20066;-47
2021/11/17 09:22:37;;;;;;;24.98;13.32;;;6.70;99.90;;;;;;5090923;28;20468;-47
2021/11/17 09:25:05;;;;;;;24.30;13.07;;;7.00;99.90;;;;;;5090925;28;20020;-49
2021/11/17 09:27:31;;;;;;;25.73;12.55;;;7.30;99.90;;;;;;5088847;28;20138;-49
2021/11/17 09:29:56;;;;;;;27.38;12.75;;;7.40;99.90;;;;;;5090562;28;20103;-48
2021/11/17 09:32:22;;;;;;;26.42;13.82;;;7.40;99.90;;;;;;5090022;28;20032;-48
2021/11/17 09:34:48;;;;;;;24.63;12.15;;;7.50;99.90;;;;;;5090536;28;20601;-47
2021/11/17 09:37:14;;;;;;;21.20;13.07;;;7.40;99.90;;;;;;5086556;28;20024;-48
2021/11/17 09:39:42;;;;;;;21.40;12.85;;;7.40;99.90;;;;;;5087037;28;20038;-47
2021/11/17 09:42:10;;;;;;;22.27;12.60;;;7.40;99.90;;;;;;5092315;28;20016;-50
2021/11/17 09:44:40;;;;;;;22.85;12.30;;;7.20;99.90;;;;;;5089383;28;20608;-49
2021/11/17 09:47:15;;;;;;;23.00;11.98;;;7.20;99.90;;;;;;5092067;28;20370;-48
2021/11/17 09:49:57;;;;;;;23.65;12.43;;;7.30;99.90;;;;;;5089519;28;20020;-48
2021/11/17 09:52:30;;;;;;;26.42;13.75;;;7.20;99.90;;;;;;5101072;28;20099;-48
2021/11/17 09:55:34;;;;;;;22.30;12.00;;;7.40;99.90;;;;;;5097032;28;20025;-48
2021/11/17 09:58:05;;;;;;;22.10;12.55;;;7.40;99.90;;;;;;5090267;28;20022;-50
2021/11/17 10:00:40;;;;;;;22.73;11.80;;;7.80;99.90;;;;;;5091647;28;20028;-47
2021/11/17 10:03:11;;;;;;;22.45;11.63;;;8.10;99.90;;;;;;5094076;28;20470;-48
2021/11/17 10:11:30;;;;;;;17.58;10.68;;;9.50;99.90;;;;;;5104319;28;20084;-47
2021/11/17 10:14:29;;;;;;;21.67;12.45;;;9.30;99.90;;;;;;5103396;28;20047;-48
2021/11/17 10:16:55;;;;;;;17.65;11.10;;;9.20;99.90;;;;;;5095781;28;20020;-48
2021/11/17 10:19:33;;;;;;;16.67;10.05;;;9.50;99.90;;;;;;5100645;28;20602;-48
2021/11/17 10:22:06;;;;;;;20.10;11.68;;;9.60;99.90;;;;;;5105766;28;20731;-47
2021/11/17 10:24:42;;;;;;;17.48;10.98;;;9.80;99.90;;;;;;5101550;28;20035;-50
2021/11/17 10:27:11;;;;;;;14.18;9.88;;;9.60;99.90;;;;;;5100251;28;20135;-47
2021/11/17 10:29:40;;;;;;;17.75;11.40;;;9.50;99.90;;;;;;5089858;28;20061;-48
2021/11/17 10:32:21;;;;;;;17.00;9.82;;;9.30;99.90;;;;;;5088426;28;20491;-48
2021/11/17 10:34:58;;;;;;;17.42;10.80;;;8.90;99.90;;;;;;5091245;28;20142;-48
2021/11/17 10:37:23;;;;;;;18.42;10.68;;;8.60;99.90;;;;;;5107758;28;20606;-49
2021/11/17 10:39:49;;;;;;;17.95;11.30;;;8.50;99.90;;;;;;5101824;28;20088;-48
2021/11/17 10:42:21;;;;;;;21.67;11.65;;;8.50;99.90;;;;;;5091147;28;20024;-48
2021/11/17 10:45:10;;;;;;;19.45;10.80;;;8.20;99.90;;;;;;5089850;28;20028;-47
2021/11/17 10:47:45;;;;;;;19.48;11.18;;;8.20;99.90;;;;;;5096660;28;20043;-48
2021/11/17 10:50:36;;;;;;;18.58;10.70;;;8.20;99.90;;;;;;5106562;28;20027;-47
2021/11/17 10:53:14;;;;;;;18.88;11.40;;;8.20;99.90;;;;;;5101190;28;20062;-49
2021/11/17 10:55:48;;;;;;;20.27;11.25;;;8.20;99.90;;;;;;5069461;28;20071;-48
2021/11/17 10:58:19;;;;;;;17.05;10.65;;;8.30;99.90;;;;;;5077753;28;20077;-48
2021/11/17 11:01:23;;;;;;;16.60;10.25;;;8.30;99.90;;;;;;5101916;28;20030;-47
2021/11/17 11:03:52;;;;;;;15.15;9.18;;;8.20;99.90;;;;;;5109865;28;20046;-48
2021/11/17 11:06:33;;;;;;;19.00;10.23;;;8.20;99.90;;;;;;5101831;28;20027;-48
2021/11/17 11:09:21;;;;;;;17.15;9.35;;;8.20;99.90;;;;;;5104721;28;20049;-49
2021/11/17 11:11:51;;;;;;;13.65;8.65;;;8.30;99.90;;;;;;5103624;28;20035;-50
2021/11/17 11:14:42;;;;;;;20.50;9.40;;;8.40;99.90;;;;;;5101376;28;20020;-50
2021/11/17 11:17:28;;;;;;;13.75;8.40;;;8.30;99.90;;;;;;5089303;28;20032;-48
2021/11/17 11:20:15;;;;;;;17.73;9.85;;;8.40;99.90;;;;;;5095364;28;20050;-48
2021/11/17 11:23:02;;;;;;;15.02;8.05;;;8.40;99.90;;;;;;5084345;28;20024;-47
2021/11/17 11:25:50;;;;;;;16.90;8.98;;;8.50;99.90;;;;;;5098585;28;20043;-50
2021/11/17 11:28:21;;;;;;;13.73;8.80;;;8.50;99.90;;;;;;5095775;28;20056;-48
2021/11/17 11:31:10;;;;;;;13.18;8.30;;;8.40;99.90;;;;;;5104958;28;20020;-47
2021/11/17 11:33:40;;;;;;;14.10;8.77;;;8.40;99.90;;;;;;5105502;28;20023;-47
2021/11/17 11:36:11;;;;;;;11.52;7.35;;;8.40;99.90;;;;;;5104308;28;20023;-49
2021/11/17 11:38:47;;;;;;;12.73;7.88;;;8.50;99.90;;;;;;5111165;28;20492;-48
2021/11/17 11:41:12;;;;;;;11.82;7.45;;;8.50;99.90;;;;;;5100994;28;20099;-47
2021/11/17 11:43:40;;;;;;;13.88;8.35;;;8.40;99.90;;;;;;5090514;28;20123;-48
2021/11/17 11:46:24;;;;;;;11.63;7.47;;;8.40;99.90;;;;;;5100064;28;20024;-50
2021/11/17 11:48:59;;;;;;;11.00;7.47;;;8.30;99.90;;;;;;5092205;28;20108;-49
2021/11/17 11:51:59;;;;;;;11.10;7.03;;;8.30;99.90;;;;;;5099947;28;20028;-49
2021/11/17 11:54:29;;;;;;;12.68;8.00;;;8.10;99.90;;;;;;5110014;28;20030;-48
2021/11/17 11:57:01;;;;;;;;;;;8.10;99.90;;;;;;5101409;28;20137;-49
2021/11/17 11:59:29;;;;;;;13.32;8.15;;;8.10;99.90;;;;;;5094563;28;20002;-49
2021/11/17 12:02:11;;;;;;;11.50;7.53;;;8.10;99.90;;;;;;5094440;28;20173;-48
2021/11/17 12:04:46;;;;;;;14.73;8.73;;;8.10;99.90;;;;;;5071905;28;20021;-49
2021/11/17 12:07:16;;;;;;;12.88;8.63;;;8.00;99.90;;;;;;5088149;28;20026;-50
2021/11/17 12:09:59;;;;;;;11.85;8.40;;;8.00;99.90;;;;;;5103421;28;20027;-50
2021/11/17 12:12:31;;;;;;;14.02;8.60;;;8.00;99.90;;;;;;5105532;28;20037;-50
2021/11/17 12:15:25;;;;;;;15.38;8.65;;;8.00;99.90;;;;;;5103846;28;20031;-49
2021/11/17 12:18:09;;;;;;;17.55;9.88;;;7.90;99.90;;;;;;5096307;28;20032;-46
2021/11/17 12:20:39;;;;;;;15.30;8.57;;;7.80;99.90;;;;;;5092035;28;20467;-46
2021/11/17 12:23:15;;;;;;;14.50;8.43;;;7.80;99.90;;;;;;5083993;28;20111;-47
2021/11/17 12:25:54;;;;;;;14.40;9.00;;;7.80;99.90;;;;;;5092090;28;20479;-46
2021/11/17 12:28:20;;;;;;;14.18;8.48;;;7.70;99.90;;;;;;5084600;28;20019;-47
2021/11/17 12:30:56;;;;;;;14.95;8.80;;;7.70;99.90;;;;;;5103246;28;20019;-46
2021/11/17 12:33:23;;;;;;;13.40;8.95;;;7.70;99.90;;;;;;5105428;28;20111;-48
2021/11/17 12:36:12;;;;;;;14.27;8.70;;;7.60;99.90;;;;;;5103007;28;20114;-46
2021/11/17 12:38:39;;;;;;;13.90;8.07;;;7.60;99.90;;;;;;5103002;28;20028;-45
2021/11/17 12:41:12;;;;;;;14.15;9.10;;;7.60;99.90;;;;;;5102640;28;20019;-48
2021/11/17 12:43:51;;;;;;;15.18;8.88;;;7.60;99.90;;;;;;5110627;28;20031;-49
2021/11/17 12:46:40;;;;;;;14.00;8.93;;;7.60;99.90;;;;;;5102295;28;20046;-48
2021/11/17 12:49:14;;;;;;;17.08;9.25;;;7.50;99.90;;;;;;5110421;28;20076;-48
2021/11/17 12:51:53;;;;;;;15.43;8.85;;;7.50;99.90;;;;;;5098941;28;20065;-49
2021/11/17 12:54:33;;;;;;;16.70;9.73;;;7.50;99.90;;;;;;5109104;28;20026;-48
2021/11/17 12:57:05;;;;;;;15.40;9.15;;;7.50;99.90;;;;;;5099488;28;20032;-48
2021/11/17 12:59:43;;;;;;;16.60;9.52;;;7.40;99.90;;;;;;5110649;28;20034;-48
2021/11/17 13:02:32;;;;;;;20.50;11.20;;;7.40;99.90;;;;;;5102890;28;20028;-48
2021/11/17 13:05:17;;;;;;;13.98;9.10;;;7.40;99.90;;;;;;5092613;28;20016;-48
2021/11/17 13:07:47;;;;;;;17.33;10.02;;;7.40;99.90;;;;;;5090652;28;20056;-48
2021/11/17 13:10:28;;;;;;;16.65;9.65;;;7.40;99.90;;;;;;5086441;28;20121;-48
2021/11/17 13:13:10;;;;;;;16.75;10.20;;;7.40;99.90;;;;;;5082106;28;20055;-48
2021/11/17 13:15:41;;;;;;;22.52;11.15;;;7.50;99.90;;;;;;5094266;28;20385;-48
2021/11/17 13:18:21;;;;;;;16.20;10.23;;;7.40;99.90;;;;;;5091616;28;20070;-48
2021/11/17 13:20:47;;;;;;;16.83;11.35;;;7.30;99.90;;;;;;5093268;28;20039;-49
2021/11/17 13:23:12;;;;;;;20.77;11.85;;;7.30;99.90;;;;;;5090879;28;20545;-49
2021/11/17 13:26:00;;;;;;;18.65;11.98;;;7.30;99.90;;;;;;5091961;28;20023;-48
2021/11/17 13:28:39;;;;;;;19.20;10.57;;;7.40;99.90;;;;;;5093098;28;20696;-49
2021/11/17 13:31:32;;;;;;;18.73;10.60;;;7.40;99.90;;;;;;5090955;28;20426;-48
2021/11/17 13:34:06;;;;;;;18.80;11.32;;;7.40;99.90;;;;;;5090604;28;20020;-48
2021/11/17 13:36:53;;;;;;;22.63;13.02;;;7.30;99.90;;;;;;5091480;28;20062;-49
2021/11/17 13:39:24;;;;;;;21.65;12.48;;;7.30;99.90;;;;;;5090406;28;20039;-47
2021/11/17 13:41:53;;;;;;;;;;;7.20;99.90;;;;;;5091290;28;20017;-47
2021/11/17 13:44:22;;;;;;;22.17;12.85;;;7.20;99.90;;;;;;5093945;28;20409;-47
2021/11/17 13:46:59;;;;;;;24.77;12.90;;;7.20;99.90;;;;;;5088569;28;20020;-50
2021/11/17 13:49:25;;;;;;;22.17;13.30;;;7.30;99.90;;;;;;5096244;28;20028;-48
2021/11/17 13:51:51;;;;;;;24.38;13.40;;;7.30;99.90;;;;;;5094077;28;20016;-47
2021/11/17 13:54:16;;;;;;;24.75;13.52;;;7.30;99.90;;;;;;5098116;28;20022;-47
2021/11/17 13:56:42;;;;;;;26.95;14.15;;;7.30;99.90;;;;;;5102665;28;20051;-47
2021/11/17 13:59:07;;;;;;;24.77;13.43;;;7.30;99.90;;;;;;5108296;28;20103;-47
2021/11/17 14:01:33;;;;;;;21.73;13.48;;;7.30;99.90;;;;;;5101510;28;20051;-48
2021/11/17 14:04:00;;;;;;;26.17;14.55;;;7.40;99.90;;;;;;5110598;28;20035;-48
2021/11/17 14:06:25;;;;;;;23.98;13.75;;;7.30;99.90;;;;;;5091599;28;20103;-50
2021/11/17 14:08:51;;;;;;;27.00;15.02;;;7.30;99.90;;;;;;5104246;28;20103;-50
2021/11/17 14:11:17;;;;;;;28.98;14.40;;;7.30;99.90;;;;;;5107576;28;20047;-47
2021/11/17 14:13:44;;;;;;;26.38;15.55;;;7.30;99.90;;;;;;5103128;28;20496;-48
2021/11/17 14:16:11;;;;;;;27.95;16.02;;;7.30;99.90;;;;;;5109912;28;20035;-47
2021/11/17 14:18:37;;;;;;;27.55;15.25;;;7.40;99.90;;;;;;5099051;28;20024;-48
2021/11/17 14:21:06;;;;;;;26.60;13.93;;;7.40;99.90;;;;;;5105485;28;20106;-49
2021/11/17 14:23:32;;;;;;;27.60;15.45;;;7.50;99.90;;;;;;5103139;28;20063;-48
2021/11/17 14:25:57;;;;;;;26.35;14.77;;;7.50;99.90;;;;;;5104759;28;20076;-48
2021/11/17 14:28:32;;;;;;;31.85;15.48;;;7.50;99.90;;;;;;5099630;28;20474;-49
2021/11/17 14:31:07;;;;;;;30.38;14.93;;;7.50;99.90;;;;;;5101340;28;20020;-51
2021/11/17 14:33:33;;;;;;;27.52;15.40;;;7.60;99.90;;;;;;5101804;28;20046;-49
2021/11/17 14:36:01;;;;;;;27.05;15.30;;;7.60;99.90;;;;;;5101039;28;20025;-47
2021/11/17 14:38:29;;;;;;;28.38;15.48;;;7.60;99.90;;;;;;5104073;28;20350;-47
2021/11/17 14:40:55;;;;;;;26.13;14.43;;;7.60;99.90;;;;;;5093102;28;20058;-46
2021/11/17 14:43:23;;;;;;;30.17;15.93;;;7.60;99.90;;;;;;5089725;28;20113;-46
2021/11/17 14:45:50;;;;;;;27.25;14.27;;;7.70;99.90;;;;;;5091120;28;20788;-46
2021/11/17 14:48:17;;;;;;;28.88;15.32;;;7.70;99.90;;;;;;5094073;28;20056;-46
2021/11/17 14:50:44;;;;;;;31.52;15.68;;;7.70;99.90;;;;;;5090436;28;20072;-47
2021/11/17 14:53:12;;;;;;;26.70;15.23;;;7.70;99.90;;;;;;5086758;28;20115;-46
2021/11/17 14:55:38;;;;;;;26.63;13.40;;;7.70;99.90;;;;;;5089112;28;20077;-46
2021/11/17 14:58:04;;;;;;;24.10;14.25;;;7.70;99.90;;;;;;5091174;28;20028;-47
2021/11/17 15:00:38;;;;;;;28.05;16.25;;;7.70;99.90;;;;;;5090226;28;20028;-49
2021/11/17 15:03:04;;;;;;;32.92;14.57;;;7.70;99.90;;;;;;5090757;28;20027;-48
2021/11/17 15:05:30;;;;;;;27.17;14.55;;;7.70;99.90;;;;;;5096556;28;20489;-47
2021/11/17 15:07:57;;;;;;;31.73;15.20;;;7.70;99.90;;;;;;5093631;28;20442;-47
2021/11/17 15:10:24;;;;;;;30.35;15.13;;;7.80;99.90;;;;;;5092742;28;20039;-47
2021/11/17 15:12:51;;;;;;;24.90;14.52;;;7.80;99.90;;;;;;5090370;28;20044;-46
2021/11/17 15:15:25;;;;;;;29.95;16.50;;;7.70;99.90;;;;;;5101419;28;20024;-46
2021/11/17 15:17:51;;;;;;;31.23;16.25;;;7.80;99.90;;;;;;5092641;28;20323;-46
2021/11/17 15:20:17;;;;;;;28.08;15.52;;;7.70;99.90;;;;;;5095843;28;20039;-46
2021/11/17 15:22:44;;;;;;;29.30;16.10;;;7.80;99.90;;;;;;5093482;28;20019;-46
2021/11/17 15:25:14;;;;;;;28.17;15.02;;;7.80;99.90;;;;;;5099957;28;20639;-48
2021/11/17 15:27:49;;;;;;;29.05;15.32;;;7.80;99.90;;;;;;5091854;28;20046;-47
2021/11/17 15:30:20;;;;;;;29.65;15.98;;;7.80;99.90;;;;;;5092160;28;20073;-48
2021/11/17 15:32:45;;;;;;;28.33;15.88;;;7.80;99.90;;;;;;5095442;28;20024;-49
2021/11/17 15:35:13;;;;;;;29.77;15.30;;;7.80;99.90;;;;;;5092143;28;20016;-49
2021/11/17 15:37:39;;;;;;;27.33;14.35;;;7.80;99.90;;;;;;5094707;28;20032;-48
2021/11/17 15:40:12;;;;;;;25.05;14.43;;;7.80;99.90;;;;;;5089689;28;20032;-48
2021/11/17 15:42:41;;;;;;;29.90;14.90;;;7.80;99.90;;;;;;5089948;28;20034;-47
2021/11/17 15:45:09;;;;;;;26.45;16.10;;;7.80;99.90;;;;;;5075847;28;20024;-47
2021/11/17 15:47:34;;;;;;;23.55;14.65;;;7.80;99.90;;;;;;5094694;28;20020;-49
2021/11/17 15:50:00;;;;;;;28.23;14.75;;;7.80;99.90;;;;;;5090695;28;20382;-47
2021/11/17 15:52:29;;;;;;;28.67;13.77;;;7.80;99.90;;;;;;5098821;28;20031;-51